Time;durP1;ratioP1;P1;durP2;ratioP2;P2;SDS_P1;SDS_P2;PMS_P1;PMS_P2;Temp;Humidity;BMP_temperature;BMP_pressure;BME280_temperature;BME280_humidity;BME280_pressure;Samples;Min_cycle;Max_cycle;Signal;HPM_P1;HPM_P2
2022/06/23 00:01:27;;;;;;;7.30;3.20;;;;;;;17.51;73.65;100246.20;3497220;82;98858;-86
2022/06/23 00:06:51;;;;;;;7.08;3.55;;;;;;;17.47;73.85;100248.27;3495887;82;32850;-87
2022/06/23 00:11:52;;;;;;;6.80;3.10;;;;;;;17.43;73.92;100251.71;3489966;82;98677;-86
2022/06/23 00:16:54;;;;;;;6.67;3.70;;;;;;;17.38;74.28;100252.20;3497472;82;98636;-86
2022/06/23 00:21:55;;;;;;;9.65;3.40;;;;;;;17.32;74.40;100251.11;3489377;83;98981;-86
2022/06/23 00:26:56;;;;;;;8.58;3.80;;;;;;;17.27;74.63;100253.61;3489394;82;98823;-86
2022/06/23 00:32:04;;;;;;;7.87;3.30;;;;;;;17.22;74.70;100261.05;3491036;82;98818;-86
2022/06/23 00:37:15;;;;;;;8.13;3.27;;;;;;;17.17;75.02;100253.96;3488446;82;33133;-87
2022/06/23 00:42:23;;;;;;;6.20;3.15;;;;;;;17.12;75.27;100267.59;3490606;82;98850;-86
2022/06/23 00:47:29;;;;;;;7.95;3.60;;;;;;;17.06;75.37;100270.05;3490213;83;98854;-86
2022/06/23 00:52:45;;;;;;;10.08;4.00;;;;;;;17.01;75.59;100278.11;3487782;83;98855;-87
2022/06/23 00:57:53;;;;;;;7.00;3.67;;;;;;;16.94;75.88;100272.69;3488874;81;99113;-86
2022/06/23 01:03:03;;;;;;;7.62;3.42;;;;;;;16.89;76.09;100273.93;3475097;82;98901;-86
2022/06/23 01:08:28;;;;;;;6.65;3.45;;;;;;;16.85;76.32;100275.98;3476117;82;98918;-87
2022/06/23 01:13:44;;;;;;;9.67;3.70;;;;;;;16.80;76.44;100282.05;3477689;82;98707;-87
2022/06/23 01:18:57;;;;;;;9.77;3.90;;;;;;;16.72;76.58;100273.63;3499057;82;27390;-87
2022/06/23 01:24:18;;;;;;;6.30;3.27;;;;;;;16.70;76.91;100273.87;3480706;82;98817;-86
2022/06/23 01:29:31;;;;;;;11.18;3.95;;;;;;;16.65;76.91;100277.92;3493459;80;98749;-87
2022/06/23 01:34:59;;;;;;;6.10;3.72;;;;;;;16.63;77.11;100276.77;3492797;82;99129;-87
2022/06/23 01:40:21;;;;;;;7.47;3.40;;;;;;;16.55;76.95;100283.03;3493785;83;99009;-86
2022/06/23 01:45:37;;;;;;;7.08;3.72;;;;;;;16.49;77.36;100283.92;3476205;82;99379;-86
2022/06/23 01:50:52;;;;;;;8.53;4.25;;;;;;;16.44;77.66;100289.36;3497392;79;98828;-86
2022/06/23 01:56:10;;;;;;;7.45;3.70;;;;;;;16.39;77.85;100284.27;3490832;82;98907;-86
2022/06/23 02:01:16;;;;;;;8.65;3.98;;;;;;;16.37;78.02;100286.66;3491863;83;32468;-86
2022/06/23 02:06:23;;;;;;;8.98;3.98;;;;;;;16.33;78.13;100291.47;3473004;83;98919;-87
2022/06/23 02:11:47;;;;;;;8.38;4.37;;;;;;;16.29;78.28;100287.18;3485463;83;98988;-84
2022/06/23 02:17:27;;;;;;;7.60;3.58;;;;;;;16.23;78.44;100288.23;3471906;83;98749;-86
2022/06/23 02:22:42;;;;;;;7.53;3.93;;;;;;;16.21;78.56;100293.44;3487969;83;98821;-86
2022/06/23 02:27:57;;;;;;;8.75;3.90;;;;;;;16.14;78.70;100296.28;3492305;83;99353;-87
2022/06/23 02:33:28;;;;;;;7.97;4.17;;;;;;;16.04;78.78;100293.08;3469981;83;99465;-86
2022/06/23 02:38:45;;;;;;;7.70;3.92;;;;;;;16.01;78.99;100306.98;3473368;83;98908;-87
2022/06/23 02:43:51;;;;;;;6.78;3.90;;;;;;;15.98;79.08;100306.44;3471831;83;98960;-87
2022/06/23 02:49:27;;;;;;;8.40;4.03;;;;;;;15.93;79.38;100307.70;3481595;83;31278;-87
2022/06/23 02:54:39;;;;;;;10.35;3.83;;;;;;;15.90;79.60;100294.63;3487096;83;98729;-86
2022/06/23 02:59:54;;;;;;;9.03;4.12;;;;;;;15.88;79.66;100300.41;3493305;82;98837;-87
2022/06/23 03:05:19;;;;;;;7.55;4.00;;;;;;;15.82;79.74;100304.27;3483681;82;98827;-86
2022/06/23 03:10:38;;;;;;;6.53;3.92;;;;;;;15.80;79.87;100310.81;3486409;83;99222;-87
2022/06/23 03:15:50;;;;;;;7.63;3.83;;;;;;;15.78;80.06;100320.75;3481934;83;98885;-86
2022/06/23 03:20:56;;;;;;;9.28;4.33;;;;;;;15.77;80.10;100335.83;3497902;83;98811;-87
2022/06/23 03:26:09;;;;;;;;;;;;;;;15.76;80.22;100341.97;3485046;82;98910;-86
2022/06/23 03:31:30;;;;;;;8.93;4.12;;;;;;;15.73;81.58;100340.62;3500557;83;32555;-87
2022/06/23 03:36:43;;;;;;;6.97;3.70;;;;;;;15.70;80.38;100338.08;3487296;82;32473;-86
2022/06/23 03:41:52;;;;;;;8.40;4.33;;;;;;;15.72;80.57;100343.22;3487366;83;123448;-86
2022/06/23 03:47:01;;;;;;;7.92;4.15;;;;;;;15.70;80.69;100350.56;3490169;82;98995;-87
2022/06/23 03:52:08;;;;;;;9.95;5.47;;;;;;;15.71;80.83;100357.70;3490688;81;99046;-86
2022/06/23 03:57:26;;;;;;;;;;;;;;;15.72;81.00;100366.80;3500237;82;99377;-86
2022/06/23 04:02:44;;;;;;;11.10;4.70;;;;;;;15.72;82.33;100363.44;3489047;82;85106;-86
2022/06/23 04:07:50;;;;;;;8.90;4.58;;;;;;;15.73;81.27;100362.23;3497979;82;98975;-86
2022/06/23 04:12:56;;;;;;;9.70;4.83;;;;;;;15.77;81.32;100370.52;3483864;82;99169;-86
2022/06/23 04:18:04;;;;;;;9.58;5.05;;;;;;;15.74;81.19;100374.10;3477885;82;98837;-87
2022/06/23 04:23:25;;;;;;;11.68;7.40;;;;;;;15.72;80.70;100375.13;3477398;82;98954;-87
2022/06/23 04:28:38;;;;;;;14.30;7.28;;;;;;;15.69;79.78;100382.91;3480795;83;98966;-87
2022/06/23 04:33:40;;;;;;;15.23;8.30;;;;;;;15.67;79.40;100380.53;3473311;83;99455;-87
2022/06/23 04:38:49;;;;;;;14.68;7.80;;;;;;;15.73;79.35;100390.56;3478999;81;98237;-87
2022/06/23 04:44:01;;;;;;;14.43;6.78;;;;;;;15.79;78.90;100399.43;3474624;83;99123;-87
2022/06/23 04:49:09;;;;;;;16.02;6.78;;;;;;;15.92;78.83;100401.09;3481341;83;32693;-87
2022/06/23 04:54:17;;;;;;;15.65;7.45;;;;;;;16.04;78.51;100407.48;3475558;82;98794;-87
2022/06/23 04:59:42;;;;;;;18.52;8.15;;;;;;;16.18;78.60;100408.72;3481631;82;99006;-89
2022/06/23 05:04:46;;;;;;;14.33;7.15;;;;;;;16.38;78.63;100412.42;3477241;82;99151;-90
2022/06/23 05:09:50;;;;;;;13.70;7.20;;;;;;;16.67;78.65;100411.66;3484665;82;99022;-90
2022/06/23 05:15:16;;;;;;;14.03;7.00;;;;;;;16.96;78.65;100412.81;3472802;83;99697;-90
2022/06/23 05:20:31;;;;;;;16.20;8.40;;;;;;;17.43;79.14;100427.00;3473264;80;98122;-90
2022/06/23 05:25:44;;;;;;;15.10;7.25;;;;;;;18.04;78.22;100423.33;3476217;80;99388;-94
2022/06/23 05:30:58;;;;;;;15.05;6.97;;;;;;;18.85;78.30;100428.02;3480599;83;32574;-94
2022/06/23 05:36:19;;;;;;;13.68;6.40;;;;;;;19.80;77.10;100430.67;3472288;81;99049;-91
2022/06/23 05:41:41;;;;;;;14.65;6.40;;;;;;;20.69;75.58;100430.55;3487323;83;98875;-94
2022/06/23 05:46:43;;;;;;;14.93;6.40;;;;;;;21.78;73.75;100439.84;3487535;83;98057;-89
2022/06/23 05:52:03;;;;;;;14.85;6.35;;;;;;;22.80;71.40;100443.94;3467978;82;99050;-92
2022/06/23 05:57:41;;;;;;;16.12;5.30;;;;;;;23.82;68.51;100450.38;3480295;83;99017;-93
2022/06/23 06:02:59;;;;;;;12.40;5.45;;;;;;;24.86;66.09;100446.95;3478406;83;99007;-91
2022/06/23 06:08:07;;;;;;;14.00;5.15;;;;;;;25.65;62.85;100446.30;3484373;83;99492;-92
2022/06/23 06:13:16;;;;;;;17.17;5.50;;;;;;;26.11;60.96;100440.49;3478031;83;99153;-90
2022/06/23 06:18:25;;;;;;;11.15;5.70;;;;;;;27.02;60.12;100446.07;3486890;83;28585;-92
2022/06/23 06:23:54;;;;;;;10.88;4.03;;;;;;;27.67;57.46;100447.73;3469449;83;99053;-90
2022/06/23 06:29:02;;;;;;;11.22;3.65;;;;;;;28.36;53.33;100457.50;3491352;83;98886;-90
2022/06/23 06:34:26;;;;;;;11.22;3.50;;;;;;;28.88;50.86;100461.15;3468664;82;99207;-90
2022/06/23 06:39:32;;;;;;;10.60;3.83;;;;;;;29.23;50.11;100463.14;3490923;83;99115;-92
2022/06/23 06:44:37;;;;;;;10.70;3.80;;;;;;;29.73;47.81;100472.16;3486307;83;99127;-92
2022/06/23 06:49:38;;;;;;;;;;;;;;;30.09;45.38;100464.84;3492768;80;99006;-94
2022/06/23 06:54:59;;;;;;;9.08;3.27;;;;;;;30.25;44.29;100467.00;3479485;83;84748;-92
2022/06/23 07:00:15;;;;;;;10.03;3.70;;;;;;;30.76;45.38;100467.42;3491422;82;99111;-86
2022/06/23 07:05:44;;;;;;;9.00;3.08;;;;;;;31.14;42.99;100460.19;3472148;83;99159;-94
2022/06/23 07:11:06;;;;;;;10.10;3.92;;;;;;;31.14;40.99;100460.19;3478889;83;98628;-93
2022/06/23 07:16:24;;;;;;;11.43;2.95;;;;;;;31.32;40.14;100457.63;3439162;83;99140;-89
2022/06/23 07:21:36;;;;;;;8.33;2.52;;;;;;;31.55;41.03;100464.06;3493518;81;99107;-85
2022/06/23 07:26:51;;;;;;;8.88;2.90;;;;;;;31.94;40.34;100463.34;3487623;83;98858;-93
2022/06/23 07:32:22;;;;;;;10.08;2.58;;;;;;;32.15;39.01;100475.94;3469107;81;98958;-91
2022/06/23 07:37:34;;;;;;;5.37;2.10;;;;;;;32.67;38.67;100474.64;3476367;83;99111;-89
2022/06/23 07:42:57;;;;;;;6.37;2.60;;;;;;;33.13;37.46;100483.80;3473989;82;98727;-93
2022/06/23 07:47:58;;;;;;;8.13;3.50;;;;;;;33.39;36.19;100478.42;3477607;83;98632;-91
2022/06/23 07:53:00;;;;;;;5.92;1.80;;;;;;;33.62;36.01;100482.59;3483391;81;98983;-86
2022/06/23 07:58:02;;;;;;;6.72;2.27;;;;;;;33.57;34.57;100491.31;3486074;82;98931;-91
2022/06/23 08:03:11;;;;;;;7.28;1.92;;;;;;;33.50;32.82;100488.30;3505166;81;98946;-93
2022/06/23 08:08:18;;;;;;;8.23;2.55;;;;;;;33.61;34.13;100475.34;3519630;82;98885;-95
2022/06/23 08:13:25;;;;;;;5.75;2.10;;;;;;;34.09;33.19;100483.24;3505661;82;99149;-92
2022/06/23 08:18:43;;;;;;;6.67;2.67;;;;;;;34.48;32.76;100479.92;3520663;82;27491;-91
2022/06/23 08:24:10;;;;;;;7.62;2.22;;;;;;;34.61;31.46;100473.63;3516858;82;98621;-90
2022/06/23 08:29:16;;;;;;;6.50;2.62;;;;;;;34.44;31.77;100487.34;3508684;82;97839;-86
2022/06/23 08:34:17;;;;;;;6.17;2.10;;;;;;;34.89;31.22;100488.30;3511040;82;98902;-88
2022/06/23 08:39:41;;;;;;;5.37;3.08;;;;;;;35.12;31.28;100487.27;3523656;82;98781;-91
2022/06/23 08:45:13;;;;;;;5.87;1.90;;;;;;;35.80;31.63;100482.82;3511106;82;99111;-90
2022/06/23 08:50:53;;;;;;;4.25;1.87;;;;;;;35.96;29.55;100486.70;3511139;82;98828;-90
2022/06/23 08:56:11;;;;;;;4.92;1.82;;;;;;;36.07;29.00;100490.77;3509516;82;98959;-92
2022/06/23 09:01:30;;;;;;;5.30;1.92;;;;;;;36.32;28.98;100490.64;3501387;82;27436;-90
2022/06/23 09:06:45;;;;;;;5.70;1.90;;;;;;;36.52;29.59;100486.43;3485593;83;27405;-91
2022/06/23 09:12:26;;;;;;;4.90;2.30;;;;;;;36.41;29.64;100485.25;3473064;82;98955;-93
2022/06/23 09:17:56;;;;;;;9.18;2.08;;;;;;;36.33;29.78;100479.28;3483642;83;98775;-85
2022/06/23 09:23:27;;;;;;;4.33;1.80;;;;;;;36.54;26.87;100472.95;3493335;83;98846;-88
2022/06/23 09:28:50;;;;;;;4.25;1.70;;;;;;;36.03;28.38;100479.64;3483900;83;98958;-88
2022/06/23 09:34:05;;;;;;;4.85;2.22;;;;;;;36.33;29.34;100482.14;3497307;81;99048;-91
2022/06/23 09:39:18;;;;;;;3.20;1.80;;;;;;;35.50;28.47;100484.41;3491322;82;99100;-95
2022/06/23 09:44:56;;;;;;;3.07;1.67;;;;;;;36.20;28.86;100481.53;3488260;82;98898;-91
2022/06/23 09:50:12;;;;;;;4.62;1.57;;;;;;;37.10;29.71;100496.95;3483242;81;98885;-90
2022/06/23 09:55:35;;;;;;;4.60;1.85;;;;;;;38.34;28.99;100496.86;3483776;83;98784;-88
2022/06/23 10:00:45;;;;;;;4.95;1.70;;;;;;;39.03;26.67;100496.57;3492033;83;27432;-90
2022/06/23 10:06:09;;;;;;;3.65;1.87;;;;;;;39.12;24.51;100506.06;3461231;83;99279;-89
2022/06/23 10:11:30;;;;;;;5.12;1.77;;;;;;;39.12;27.21;100491.67;3313486;83;97984;-89
2022/06/23 10:16:49;;;;;;;5.15;2.65;;;;;;;39.44;27.04;100489.72;3462896;83;97984;-91
2022/06/23 10:22:33;;;;;;;6.70;2.10;;;;;;;39.90;25.33;100487.67;3465645;82;98918;-88
2022/06/23 10:28:04;;;;;;;5.85;2.27;;;;;;;39.43;23.38;100468.77;3476308;83;99010;-93
2022/06/23 10:33:28;;;;;;;5.87;2.47;;;;;;;39.11;23.63;100483.63;3425757;81;99414;-88
2022/06/23 10:38:37;;;;;;;3.92;2.15;;;;;;;39.24;25.05;100486.31;3458807;83;98857;-89
2022/06/23 10:44:14;;;;;;;5.67;2.42;;;;;;;39.29;24.68;100478.94;3448774;83;99043;-91
2022/06/23 10:49:54;;;;;;;4.37;2.02;;;;;;;39.26;23.44;100473.54;3480025;83;28318;-92
2022/06/23 10:55:25;;;;;;;3.37;1.90;;;;;;;39.10;23.08;100467.67;3461181;83;98907;-89
2022/06/23 11:00:34;;;;;;;5.92;1.77;;;;;;;38.41;22.79;100475.23;3471117;83;27588;-92
2022/06/23 11:05:49;;;;;;;14.73;2.55;;;;;;;38.02;25.01;100465.56;3465320;83;98812;-91
2022/06/23 11:11:48;;;;;;;4.62;2.00;;;;;;;38.79;25.07;100470.39;3444773;83;98897;-89
2022/06/23 11:17:00;;;;;;;4.42;2.15;;;;;;;39.49;24.07;100467.16;3485317;83;98586;-93
2022/06/23 11:22:31;;;;;;;6.35;2.05;;;;;;;39.69;25.44;100459.72;3474385;81;99178;-92
2022/06/23 11:28:04;;;;;;;7.40;3.08;;;;;;;39.60;25.79;100458.86;3477815;83;98848;-89
2022/06/23 11:33:19;;;;;;;8.47;2.53;;;;;;;40.20;24.00;100455.88;3462540;82;98838;-89
2022/06/23 11:38:46;;;;;;;3.67;1.82;;;;;;;40.22;24.09;100451.76;3460515;79;98826;-94
2022/06/23 11:44:15;;;;;;;4.75;2.00;;;;;;;40.65;25.66;100458.56;3460509;80;99318;-92
2022/06/23 11:49:25;;;;;;;5.00;2.47;;;;;;;40.96;23.58;100445.50;3453022;83;27527;-87
2022/06/23 11:54:51;;;;;;;8.73;2.70;;;;;;;40.62;22.94;100452.54;3482112;83;98732;-92
2022/06/23 12:00:15;;;;;;;5.40;1.90;;;;;;;40.28;24.00;100445.09;3479954;83;98801;-93
2022/06/23 12:05:53;;;;;;;4.83;2.12;;;;;;;40.28;25.02;100442.88;3460457;80;98734;-94
2022/06/23 12:10:55;;;;;;;3.15;1.90;;;;;;;40.34;25.34;100447.08;3466732;82;98735;-88
2022/06/23 12:15:56;;;;;;;5.08;2.30;;;;;;;40.41;25.13;100439.72;3452824;83;98951;-90
2022/06/23 12:21:11;;;;;;;3.87;1.70;;;;;;;40.49;25.40;100429.67;3466363;83;98926;-93
2022/06/23 12:26:20;;;;;;;5.10;2.08;;;;;;;40.84;25.06;100427.09;3459056;83;98929;-92
2022/06/23 12:31:34;;;;;;;5.40;2.25;;;;;;;40.94;24.06;100430.09;3458471;83;99435;-86
2022/06/23 12:37:06;;;;;;;2.80;1.67;;;;;;;40.21;23.19;100431.45;3466895;83;28171;-93
2022/06/23 12:42:12;;;;;;;3.40;2.00;;;;;;;39.66;24.35;100428.42;3452973;81;99091;-93
2022/06/23 12:47:35;;;;;;;4.95;1.85;;;;;;;39.95;25.10;100424.72;3457257;80;98760;-93
2022/06/23 12:52:50;;;;;;;2.62;2.00;;;;;;;39.98;25.79;100412.01;3465454;83;99252;-92
2022/06/23 12:58:19;;;;;;;6.28;2.10;;;;;;;40.20;24.62;100416.20;3434459;82;98804;-93
2022/06/23 13:03:56;;;;;;;8.28;2.05;;;;;;;39.58;22.64;100408.92;3449645;83;98925;-91
2022/06/23 13:09:28;;;;;;;7.42;2.83;;;;;;;39.26;22.88;100398.00;3436359;83;98901;-90
2022/06/23 13:14:53;;;;;;;8.00;2.20;;;;;;;38.88;23.31;100406.53;3459361;82;98929;-91
2022/06/23 13:20:08;;;;;;;9.03;2.30;;;;;;;38.11;22.06;100405.43;3454356;83;99024;-90
2022/06/23 13:25:18;;;;;;;4.45;1.82;;;;;;;37.70;22.76;100401.94;3455011;83;99233;-90
2022/06/23 13:30:22;;;;;;;4.42;1.70;;;;;;;37.61;23.62;100391.75;3457503;81;98507;-92
2022/06/23 13:35:35;;;;;;;6.35;2.00;;;;;;;37.82;25.52;100395.97;3445537;83;98802;-90
2022/06/23 13:40:48;;;;;;;3.57;1.63;;;;;;;37.96;24.52;100393.83;3460452;83;98921;-88
2022/06/23 13:46:25;;;;;;;4.90;2.00;;;;;;;37.64;24.01;100380.55;3457483;83;98469;-91
2022/06/23 13:52:02;;;;;;;3.75;2.20;;;;;;;37.51;25.71;100382.73;3449992;83;104370;-91
2022/06/23 13:57:14;;;;;;;5.00;2.00;;;;;;;37.50;24.30;100381.98;3462937;83;99180;-89
2022/06/23 14:02:30;;;;;;;6.12;2.72;;;;;;;37.31;24.45;100367.75;3465587;82;98928;-93
2022/06/23 14:07:42;;;;;;;4.50;1.90;;;;;;;36.88;23.88;100378.39;3466182;82;98854;-92
2022/06/23 14:13:10;;;;;;;4.80;2.00;;;;;;;36.91;25.14;100373.64;3471982;83;99106;-92
2022/06/23 14:18:42;;;;;;;5.17;2.58;;;;;;;37.26;27.23;100366.58;3470932;83;98662;-86
2022/06/23 14:23:55;;;;;;;5.62;2.20;;;;;;;37.05;24.18;100354.33;3460556;82;99461;-83
2022/06/23 14:29:34;;;;;;;4.03;2.03;;;;;;;35.91;25.02;100350.06;3480374;82;99398;-86
2022/06/23 14:35:01;;;;;;;6.10;1.92;;;;;;;35.30;25.67;100347.67;3469598;82;99958;-90
2022/06/23 14:40:20;;;;;;;8.10;2.87;;;;;;;35.34;27.98;100350.30;3480737;83;98866;-90
2022/06/23 14:45:35;;;;;;;6.65;2.30;;;;;;;35.56;26.14;100346.22;3481781;82;98972;-92
2022/06/23 14:50:41;;;;;;;5.42;2.20;;;;;;;35.25;25.52;100341.39;3456238;83;98982;-89
2022/06/23 14:56:14;;;;;;;2.62;1.67;;;;;;;35.13;26.49;100337.16;3486371;82;98751;-87
2022/06/23 15:01:29;;;;;;;4.55;2.33;;;;;;;35.19;27.76;100340.70;3473602;82;27465;-88
2022/06/23 15:06:48;;;;;;;4.22;2.22;;;;;;;35.00;28.00;100337.15;3469961;83;27590;-89
2022/06/23 15:12:44;;;;;;;6.70;2.50;;;;;;;34.74;27.92;100331.34;3476658;83;99251;-90
2022/06/23 15:18:08;;;;;;;6.12;2.10;;;;;;;34.74;28.19;100332.77;3470364;83;27618;-88
2022/06/23 15:23:15;;;;;;;6.40;2.40;;;;;;;34.47;28.44;100334.00;3457918;80;99190;-88
2022/06/23 15:28:52;;;;;;;5.83;1.98;;;;;;;34.21;28.64;100326.74;3485521;83;98957;-88
2022/06/23 15:34:18;;;;;;;5.00;1.98;;;;;;;33.99;28.81;100325.64;3463369;83;99478;-86
2022/06/23 15:39:45;;;;;;;4.70;1.80;;;;;;;33.61;28.40;100321.95;3483081;83;99033;-85
2022/06/23 15:45:09;;;;;;;8.28;2.12;;;;;;;33.33;28.73;100319.31;3467466;83;99001;-85
2022/06/23 15:50:34;;;;;;;4.95;2.00;;;;;;;33.09;28.82;100317.23;3464237;83;98723;-87
2022/06/23 15:56:07;;;;;;;2.75;1.75;;;;;;;32.67;28.99;100324.22;3456905;83;98959;-89
2022/06/23 16:01:26;;;;;;;5.67;2.42;;;;;;;32.15;29.11;100319.30;3456143;83;28308;-90
2022/06/23 16:06:37;;;;;;;4.72;2.00;;;;;;;31.78;29.32;100319.78;3460188;82;98929;-87
2022/06/23 16:11:50;;;;;;;4.35;2.00;;;;;;;31.26;29.62;100317.50;3455204;83;99373;-86
2022/06/23 16:17:07;;;;;;;6.00;1.80;;;;;;;30.98;30.17;100317.41;3462962;83;98849;-87
2022/06/23 16:22:21;;;;;;;4.92;2.25;;;;;;;30.79;30.92;100317.17;3454781;83;98912;-87
2022/06/23 16:27:34;;;;;;;4.45;1.90;;;;;;;30.56;31.30;100328.39;3459965;83;98952;-84
2022/06/23 16:32:54;;;;;;;4.78;1.95;;;;;;;30.44;31.67;100331.11;3454524;83;99682;-88
2022/06/23 16:38:06;;;;;;;4.97;1.90;;;;;;;30.21;31.15;100330.97;3461778;83;98979;-89
2022/06/23 16:43:16;;;;;;;12.60;2.92;;;;;;;29.90;31.31;100325.44;3465232;83;99088;-85
2022/06/23 16:48:39;;;;;;;10.08;2.87;;;;;;;29.61;31.53;100330.75;3461879;82;98851;-92
2022/06/23 16:54:17;;;;;;;6.40;2.15;;;;;;;29.50;31.73;100320.75;3455055;81;99490;-87
2022/06/23 16:59:31;;;;;;;3.90;1.90;;;;;;;29.25;32.50;100320.27;3456348;83;98850;-91
2022/06/23 17:04:56;;;;;;;4.87;1.67;;;;;;;29.11;32.74;100316.95;3473288;80;98949;-93
2022/06/23 17:10:15;;;;;;;3.47;1.80;;;;;;;29.00;33.19;100319.72;3479212;82;98866;-86
2022/06/23 17:15:23;;;;;;;8.35;2.30;;;;;;;28.78;33.07;100317.46;3468938;82;99037;-91
2022/06/23 17:20:29;;;;;;;5.17;1.92;;;;;;;28.56;32.98;100317.30;3490586;82;99399;-88
2022/06/23 17:25:36;;;;;;;4.70;2.00;;;;;;;28.36;33.87;100311.70;3481248;83;99249;-88
2022/06/23 17:30:45;;;;;;;7.08;2.10;;;;;;;28.21;33.85;100315.92;3471169;83;28565;-89
2022/06/23 17:36:14;;;;;;;4.12;2.05;;;;;;;28.10;34.15;100315.81;3472165;83;99164;-86
2022/06/23 17:47:47;;;;;;;2.35;1.70;;;;;;;27.77;34.23;100315.42;3508524;80;99164;-79
2022/06/23 17:52:48;;;;;;;5.58;2.17;;;;;;;27.61;34.41;100321.05;3505300;80;99229;-79
2022/06/23 17:57:59;;;;;;;4.08;1.90;;;;;;;27.44;34.59;100322.09;3545950;80;98021;-77
2022/06/23 18:03:29;;;;;;;4.37;2.25;;;;;;;27.27;35.02;100317.66;3549672;81;99008;-76
2022/06/23 18:08:47;;;;;;;8.60;2.27;;;;;;;27.12;34.98;100321.76;3528751;81;99312;-79
2022/06/23 18:14:12;;;;;;;5.50;2.17;;;;;;;26.95;35.15;100322.95;3542243;81;98896;-79
2022/06/23 18:19:31;;;;;;;4.40;2.37;;;;;;;26.81;35.41;100330.05;3532964;81;27296;-78
2022/06/23 18:24:40;;;;;;;5.45;2.55;;;;;;;26.70;35.60;100332.70;3535153;81;98757;-79
2022/06/23 18:29:47;;;;;;;3.55;1.95;;;;;;;26.54;35.96;100328.94;3547544;81;98756;-78
2022/06/23 18:35:11;;;;;;;4.87;2.08;;;;;;;26.40;36.29;100334.73;3536405;81;98843;-78
2022/06/23 18:40:27;;;;;;;7.08;1.90;;;;;;;26.33;37.27;100335.10;3554386;81;98866;-78
2022/06/23 18:45:53;;;;;;;5.25;2.30;;;;;;;26.24;38.58;100333.02;3526861;81;98840;-77
2022/06/23 18:51:15;;;;;;;6.92;2.40;;;;;;;26.10;39.41;100341.62;3550529;81;97965;-77
2022/06/23 18:56:19;;;;;;;6.55;2.45;;;;;;;25.93;40.31;100341.18;3520785;80;99195;-78
2022/06/23 19:01:35;;;;;;;6.40;2.60;;;;;;;25.81;41.68;100350.01;3534566;81;30395;-79
2022/06/23 19:06:43;;;;;;;9.65;2.65;;;;;;;25.64;42.25;100351.72;3549390;81;27614;-79
2022/06/23 19:12:19;;;;;;;4.78;2.30;;;;;;;25.48;43.49;100359.81;3542569;81;98927;-78
2022/06/23 19:17:46;;;;;;;6.17;2.83;;;;;;;25.33;44.49;100363.22;3548395;81;98731;-79
2022/06/23 19:23:04;;;;;;;5.15;2.60;;;;;;;25.16;45.50;100366.23;3530499;81;98409;-79
2022/06/23 19:28:49;;;;;;;5.20;2.40;;;;;;;25.01;46.08;100372.44;3544490;81;99290;-79
2022/06/23 19:33:53;;;;;;;7.37;2.60;;;;;;;24.83;46.80;100374.69;3536700;80;98954;-79
2022/06/23 19:39:18;;;;;;;6.42;2.40;;;;;;;24.68;47.96;100378.67;3496375;81;99278;-79
2022/06/23 19:44:36;;;;;;;9.13;3.00;;;;;;;24.50;47.33;100385.70;3504518;81;98769;-79
2022/06/23 19:50:03;;;;;;;6.58;2.80;;;;;;;24.33;47.65;100389.50;3516224;82;98885;-79
2022/06/23 19:55:09;;;;;;;12.13;3.30;;;;;;;24.17;48.00;100398.88;3516994;82;98810;-77
2022/06/23 20:00:19;;;;;;;8.10;3.10;;;;;;;24.01;48.02;100402.02;3542355;82;98817;-77
2022/06/23 20:05:28;;;;;;;7.33;2.87;;;;;;;23.89;48.85;100398.73;3521136;81;98822;-77
2022/06/23 20:10:37;;;;;;;5.92;2.77;;;;;;;23.72;48.40;100403.07;3524836;80;98592;-77
2022/06/23 20:15:46;;;;;;;8.05;3.40;;;;;;;23.52;48.27;100397.09;3528194;81;99252;-77
2022/06/23 20:21:18;;;;;;;7.22;3.30;;;;;;;23.36;48.62;100403.78;3542600;80;97949;-77
2022/06/23 20:26:41;;;;;;;9.33;3.33;;;;;;;23.24;49.10;100400.48;3531974;82;98214;-76
2022/06/23 20:32:23;;;;;;;8.80;3.13;;;;;;;23.04;49.68;100401.47;3521969;81;98052;-76
2022/06/23 20:37:41;;;;;;;7.62;3.12;;;;;;;22.96;50.42;100409.23;3528611;82;27540;-77
2022/06/23 20:43:24;;;;;;;11.88;3.50;;;;;;;22.86;50.77;100407.02;3523836;82;98752;-77
2022/06/23 20:49:15;;;;;;;6.83;3.00;;;;;;;22.80;51.72;100411.66;3541655;81;98715;-77
2022/06/23 20:54:27;;;;;;;8.50;3.52;;;;;;;22.72;52.25;100420.18;3559177;81;99085;-76
2022/06/23 20:59:46;;;;;;;8.50;3.80;;;;;;;22.66;52.99;100419.21;3561617;81;98375;-76
2022/06/23 21:04:58;;;;;;;11.57;3.90;;;;;;;22.58;54.06;100422.14;3557860;81;99197;-76
2022/06/23 21:10:11;;;;;;;7.17;3.65;;;;;;;22.52;54.09;100425.98;3563275;80;99396;-76
2022/06/23 21:15:27;;;;;;;6.58;3.40;;;;;;;22.44;54.92;100425.47;3483593;83;98927;-78
2022/06/23 21:20:48;;;;;;;9.25;3.87;;;;;;;22.35;54.26;100427.41;3448974;83;99316;-79
2022/06/23 21:26:17;;;;;;;8.05;3.98;;;;;;;22.21;54.04;100424.50;3471832;83;98740;-78
2022/06/23 21:31:32;;;;;;;7.42;3.67;;;;;;;22.09;54.23;100430.16;3471887;84;33549;-79
2022/06/23 21:36:44;;;;;;;7.03;3.10;;;;;;;21.95;53.71;100423.03;3477106;83;27584;-81
2022/06/23 21:42:03;;;;;;;7.85;3.77;;;;;;;21.85;53.83;100431.19;3475501;83;99043;-79
2022/06/23 21:47:15;;;;;;;6.70;3.17;;;;;;;21.76;53.77;100426.92;3447305;84;98761;-78
2022/06/23 21:53:05;;;;;;;7.58;3.92;;;;;;;21.68;53.96;100423.41;3437830;84;98837;-79
2022/06/23 21:58:27;;;;;;;8.58;3.92;;;;;;;21.60;54.12;100424.24;3405178;85;98835;-79
2022/06/23 22:03:39;;;;;;;7.33;3.72;;;;;;;21.50;54.29;100430.98;3432472;84;98850;-78
2022/06/23 22:08:52;;;;;;;7.58;3.70;;;;;;;21.43;54.63;100432.63;3462838;83;98752;-79
2022/06/23 22:13:57;;;;;;;6.45;3.27;;;;;;;21.35;54.83;100434.07;3417654;84;98816;-76
2022/06/23 22:19:21;;;;;;;6.87;3.53;;;;;;;21.32;55.33;100425.80;3421048;84;27529;-78
2022/06/23 22:30:30;;;;;;;7.60;3.52;;;;;;;21.16;55.65;100428.11;3427300;84;97936;-78
2022/06/23 22:35:35;;;;;;;6.70;3.72;;;;;;;21.14;56.39;100436.16;3414146;84;98685;-76
2022/06/23 22:40:39;;;;;;;7.43;4.00;;;;;;;21.10;56.89;100427.08;3427071;84;99189;-77
2022/06/23 22:45:54;;;;;;;7.72;3.60;;;;;;;21.05;57.25;100424.08;3414741;84;98851;-78
2022/06/23 22:51:03;;;;;;;8.28;3.98;;;;;;;21.01;57.54;100421.39;3424597;85;97990;-78
2022/06/23 22:56:07;;;;;;;7.58;3.87;;;;;;;20.95;57.73;100427.98;3409616;84;98834;-78
2022/06/23 23:01:18;;;;;;;6.08;3.58;;;;;;;20.90;58.34;100434.92;3419363;84;32548;-78
2022/06/23 23:06:30;;;;;;;8.98;3.80;;;;;;;20.86;58.43;100436.22;3391750;84;98936;-79
2022/06/23 23:11:37;;;;;;;9.17;3.40;;;;;;;20.74;58.10;100428.60;3411026;84;99090;-79
2022/06/23 23:16:41;;;;;;;6.90;3.12;;;;;;;20.66;58.47;100427.26;3412113;84;98855;-78
2022/06/23 23:21:45;;;;;;;8.90;4.17;;;;;;;20.56;58.85;100425.55;3420203;84;105037;-79
2022/06/23 23:26:53;;;;;;;9.08;4.12;;;;;;;20.52;59.09;100420.08;3399917;84;99090;-78
2022/06/23 23:32:11;;;;;;;8.13;4.50;;;;;;;20.47;58.80;100422.62;3401987;84;98976;-79
2022/06/23 23:37:11;;;;;;;7.08;4.33;;;;;;;20.39;59.03;100422.04;3398178;84;32472;-78
2022/06/23 23:42:14;;;;;;;10.00;4.40;;;;;;;20.34;59.79;100426.80;3409500;84;98822;-78
2022/06/23 23:47:44;;;;;;;7.80;3.90;;;;;;;20.29;59.87;100424.55;3418845;84;99148;-79
2022/06/23 23:52:46;;;;;;;9.10;4.42;;;;;;;20.20;59.59;100422.20;3416741;85;98938;-77
2022/06/23 23:57:50;;;;;;;9.65;4.67;;;;;;;20.18;60.96;100415.69;3464461;84;98884;-78
